createdAt,value
2022-10-31T00:01:21.694Z,32.75
2022-10-31T00:03:49.080Z,24.63
2022-10-31T00:06:19.195Z,34.53
2022-10-31T00:08:49.857Z,28.30
2022-10-31T00:11:17.037Z,27.23
2022-10-31T00:13:44.404Z,24.25
2022-10-31T00:16:19.203Z,23.42
2022-10-31T00:18:49.465Z,23.95
2022-10-31T00:21:16.886Z,17.23
2022-10-31T00:23:44.530Z,24.98
2022-10-31T00:26:12.094Z,21.05
2022-10-31T00:28:45.085Z,25.95
2022-10-31T00:31:13.336Z,20.75
2022-10-31T00:33:41.477Z,19.13
2022-10-31T00:36:09.822Z,18.70
2022-10-31T00:38:39.286Z,25.15
2022-10-31T00:41:06.653Z,23.67
2022-10-31T00:43:34.029Z,21.27
2022-10-31T00:46:01.353Z,22.80
2022-10-31T00:48:28.701Z,22.42
2022-10-31T00:50:58.617Z,24.70
2022-10-31T00:53:27.123Z,20.58
2022-10-31T00:55:54.390Z,19.75
2022-10-31T00:58:27.278Z,26.10
2022-10-31T01:00:57.584Z,22.85
2022-10-31T01:03:29.114Z,23.05
2022-10-31T01:06:03.754Z,28.90
2022-10-31T01:08:39.755Z,24.48
2022-10-31T01:11:09.980Z,25.05
2022-10-31T01:13:37.298Z,27.65
2022-10-31T01:16:05.933Z,28.60
2022-10-31T01:18:33.394Z,25.80
2022-10-31T01:21:04.176Z,23.05
2022-10-31T01:23:31.755Z,26.77
2022-10-31T01:26:03.427Z,24.10
2022-10-31T01:28:30.805Z,31.75
2022-10-31T01:31:01.622Z,27.55
2022-10-31T01:33:31.839Z,26.75
2022-10-31T01:35:59.506Z,28.98
2022-10-31T01:38:27.038Z,28.17
2022-10-31T01:40:54.815Z,23.23
2022-10-31T01:45:52.937Z,37.58
2022-10-31T01:48:21.937Z,32.00
2022-10-31T01:50:50.349Z,33.88
2022-10-31T01:53:25.881Z,31.15
2022-10-31T01:55:58.985Z,29.08
2022-10-31T01:58:29.650Z,28.75
2022-10-31T02:01:01.811Z,32.53
2022-10-31T02:03:32.958Z,26.77
2022-10-31T02:06:02.941Z,28.75
2022-10-31T02:08:31.483Z,27.33
2022-10-31T02:10:59.994Z,31.45
2022-10-31T02:13:28.036Z,30.45
2022-10-31T02:15:56.631Z,30.05
2022-10-31T02:18:25.026Z,28.02
2022-10-31T02:20:52.236Z,23.35
2022-10-31T02:23:33.842Z,30.90
2022-10-31T02:26:10.174Z,27.40
2022-10-31T02:28:49.661Z,25.63
2022-10-31T02:31:16.895Z,28.08
2022-10-31T02:33:55.532Z,25.85
2022-10-31T02:36:30.837Z,22.27
2022-10-31T02:39:13.742Z,24.60
2022-10-31T02:42:02.533Z,23.27
2022-10-31T02:44:39.125Z,21.58
2022-10-31T02:47:20.348Z,25.88
2022-10-31T02:49:50.624Z,24.85
2022-10-31T02:52:21.952Z,27.02
2022-10-31T02:54:49.736Z,24.02
2022-10-31T02:57:24.476Z,23.20
2022-10-31T02:59:54.574Z,25.58
2022-10-31T03:02:30.986Z,26.75
2022-10-31T03:05:23.965Z,24.30
2022-10-31T03:08:09.214Z,27.75
2022-10-31T03:10:59.488Z,21.85
2022-10-31T03:13:59.497Z,23.60
2022-10-31T03:16:37.678Z,22.88
2022-10-31T03:19:16.026Z,19.55
2022-10-31T03:21:53.286Z,23.98
2022-10-31T03:24:20.964Z,23.50
2022-10-31T03:26:51.510Z,30.05
2022-10-31T03:29:21.193Z,25.67
2022-10-31T03:31:53.581Z,21.17
2022-10-31T03:34:21.465Z,21.75
2022-10-31T03:36:50.668Z,20.35
2022-10-31T03:39:20.051Z,22.17
2022-10-31T03:41:49.950Z,20.35
2022-10-31T03:44:19.487Z,27.33
2022-10-31T03:46:46.884Z,33.55
2022-10-31T03:49:15.888Z,28.42
2022-10-31T03:52:01.933Z,26.60
2022-10-31T03:54:36.466Z,30.70
2022-10-31T03:57:10.628Z,27.80
2022-10-31T03:59:52.980Z,27.75
2022-10-31T04:02:38.109Z,34.08
2022-10-31T04:05:09.616Z,37.95
2022-10-31T04:07:44.167Z,36.20
2022-10-31T04:10:13.280Z,33.70
2022-10-31T04:12:43.846Z,37.03
2022-10-31T04:15:11.868Z,26.50
2022-10-31T04:17:40.925Z,26.42
2022-10-31T04:20:08.624Z,22.67
2022-10-31T04:22:39.529Z,26.48
2022-10-31T04:25:21.991Z,23.23
2022-10-31T04:27:55.743Z,22.98
2022-10-31T04:30:31.427Z,22.90
2022-10-31T04:33:15.876Z,25.65
2022-10-31T04:36:00.608Z,26.60
2022-10-31T04:41:44.385Z,24.83
2022-10-31T04:46:55.135Z,22.42
2022-10-31T04:49:50.226Z,23.83
2022-10-31T04:55:19.067Z,25.67
2022-10-31T04:57:52.642Z,29.05
2022-10-31T05:03:38.081Z,22.98
2022-10-31T05:06:25.741Z,27.48
2022-10-31T05:09:14.082Z,22.63
2022-10-31T05:11:47.606Z,28.60
2022-10-31T05:14:17.561Z,28.77
2022-10-31T05:19:53.477Z,29.63
2022-10-31T05:22:40.714Z,31.00
2022-10-31T05:25:42.150Z,23.50
2022-10-31T05:34:52.658Z,31.40
2022-10-31T05:37:25.229Z,30.50
2022-10-31T05:43:03.497Z,34.30
2022-10-31T05:45:51.785Z,26.92
2022-10-31T12:14:59.907Z,19.77
2022-10-31T12:17:43.935Z,19.70
2022-10-31T12:20:20.387Z,19.52
2022-10-31T12:23:29.597Z,21.00
2022-10-31T12:29:05.281Z,17.20
2022-10-31T12:31:42.558Z,20.80
2022-10-31T12:34:29.625Z,22.15
2022-10-31T12:37:07.298Z,21.20
2022-10-31T12:39:52.453Z,20.98
2022-10-31T12:42:48.739Z,29.73
2022-10-31T12:45:16.049Z,19.65
2022-10-31T12:48:10.064Z,28.27
2022-10-31T12:50:53.869Z,22.90
2022-10-31T12:53:36.187Z,32.45
2022-10-31T12:56:19.858Z,20.02
2022-10-31T12:59:06.572Z,24.35
2022-10-31T13:01:43.176Z,21.92
2022-10-31T13:04:19.286Z,21.70
2022-10-31T13:06:51.546Z,23.38
2022-10-31T13:09:38.466Z,16.85
2022-10-31T13:12:22.656Z,22.63
2022-10-31T13:17:54.946Z,21.35
2022-10-31T13:20:43.269Z,25.60
2022-10-31T13:26:24.274Z,29.08
2022-10-31T13:29:07.906Z,20.73
2022-10-31T13:31:36.409Z,19.98
2022-10-31T13:34:12.796Z,24.95
2022-10-31T13:36:48.402Z,22.27
2022-10-31T13:39:35.818Z,26.63
2022-10-31T13:42:12.323Z,24.75
2022-10-31T13:45:04.598Z,22.92
2022-10-31T13:47:35.114Z,25.00
2022-10-31T13:50:19.067Z,21.20
2022-10-31T13:52:52.019Z,26.35
2022-10-31T13:58:35.150Z,24.63
2022-10-31T14:01:11.200Z,25.23
2022-10-31T14:04:04.580Z,20.98
2022-10-31T14:06:40.131Z,22.58
2022-10-31T14:09:14.864Z,24.85
2022-10-31T14:15:32.845Z,21.25
2022-10-31T14:18:08.777Z,19.58
2022-10-31T14:20:46.468Z,19.85
2022-10-31T14:23:43.282Z,23.42
2022-10-31T14:26:28.537Z,21.65
2022-10-31T14:28:59.773Z,20.70
2022-10-31T14:31:41.263Z,27.50
2022-10-31T14:34:26.337Z,22.67
2022-10-31T14:37:11.684Z,26.85
2022-10-31T14:39:49.627Z,22.88
2022-10-31T14:42:39.953Z,26.83
2022-10-31T14:45:17.321Z,20.70
2022-10-31T14:47:44.601Z,22.27
2022-10-31T14:50:17.618Z,23.38
2022-10-31T14:52:47.495Z,26.27
2022-10-31T14:55:17.527Z,19.77
2022-10-31T14:57:49.079Z,21.45
2022-10-31T15:00:20.564Z,20.63
2022-10-31T15:02:50.028Z,20.63
2022-10-31T15:05:19.835Z,19.85
2022-10-31T15:07:53.322Z,22.77
2022-10-31T15:10:22.255Z,25.35
2022-10-31T15:12:49.488Z,23.27
2022-10-31T15:15:20.936Z,19.60
2022-10-31T15:17:51.377Z,20.52
2022-10-31T15:20:20.198Z,27.73
2022-10-31T15:22:47.814Z,29.17
2022-10-31T15:25:19.640Z,25.95
2022-10-31T15:27:47.620Z,24.08
2022-10-31T15:30:22.216Z,21.80
2022-10-31T15:32:57.454Z,23.13
2022-10-31T15:35:27.310Z,32.28
2022-10-31T15:37:54.936Z,24.17
2022-10-31T15:40:23.401Z,26.08
2022-10-31T15:42:55.406Z,31.63
2022-10-31T15:45:27.797Z,32.47
2022-10-31T15:48:00.052Z,33.35
2022-10-31T15:52:54.636Z,35.55
2022-10-31T15:55:27.202Z,45.47
2022-10-31T15:57:56.899Z,40.90
2022-10-31T16:00:30.761Z,44.17
2022-10-31T16:03:20.925Z,46.63
2022-10-31T16:05:48.004Z,41.55
2022-10-31T16:08:32.680Z,42.60
2022-10-31T16:11:20.077Z,36.50
2022-10-31T16:13:54.736Z,43.30
2022-10-31T16:16:34.721Z,44.85
2022-10-31T16:19:03.897Z,46.30
2022-10-31T16:21:37.062Z,54.53
2022-10-31T16:24:16.924Z,45.22
2022-10-31T16:26:48.638Z,41.65
2022-10-31T16:29:34.341Z,50.90
2022-10-31T16:32:01.713Z,50.33
2022-10-31T16:34:28.798Z,44.85
2022-10-31T16:36:56.031Z,74.20
2022-10-31T16:39:23.395Z,86.38
2022-10-31T16:41:52.493Z,39.22
2022-10-31T16:44:19.636Z,44.22
2022-10-31T16:46:46.802Z,48.72
2022-10-31T16:49:14.278Z,37.05
2022-10-31T16:51:41.378Z,54.17
2022-10-31T16:54:11.746Z,40.25
2022-10-31T16:56:39.763Z,38.53
2022-10-31T16:59:13.354Z,39.90
2022-10-31T17:01:44.546Z,40.08
2022-10-31T17:04:14.630Z,41.75
2022-10-31T17:06:42.131Z,39.45
2022-10-31T17:09:09.935Z,37.65
2022-10-31T17:11:37.089Z,57.92
2022-10-31T17:14:05.131Z,56.10
2022-10-31T17:16:32.263Z,57.08
2022-10-31T17:18:59.618Z,46.80
2022-10-31T17:21:28.017Z,46.55
2022-10-31T17:23:55.261Z,43.80
2022-10-31T17:26:23.262Z,55.90
2022-10-31T17:28:52.012Z,47.03
2022-10-31T17:31:28.861Z,41.38
2022-10-31T17:34:02.233Z,74.40
2022-10-31T17:36:30.728Z,53.05
2022-10-31T17:38:58.127Z,41.72
2022-10-31T17:41:25.308Z,50.30
2022-10-31T17:43:56.151Z,52.38
2022-10-31T17:46:23.279Z,103.72
2022-10-31T17:48:50.412Z,59.22
2022-10-31T17:51:17.598Z,52.10
2022-10-31T17:53:44.728Z,48.42
2022-10-31T17:56:11.978Z,50.53
2022-10-31T17:58:39.472Z,47.03
2022-10-31T18:01:10.987Z,125.07
2022-10-31T18:03:39.013Z,76.03
2022-10-31T18:06:06.435Z,46.25
2022-10-31T18:08:34.644Z,47.00
2022-10-31T18:11:06.185Z,44.20
2022-10-31T18:13:33.335Z,148.75
2022-10-31T18:16:00.454Z,93.25
2022-10-31T18:18:27.602Z,58.92
2022-10-31T18:20:57.641Z,41.53
2022-10-31T18:23:24.769Z,44.03
2022-10-31T18:25:51.916Z,45.35
2022-10-31T18:28:19.044Z,39.90
2022-10-31T18:30:46.164Z,64.90
2022-10-31T18:33:13.373Z,55.10
2022-10-31T18:35:40.701Z,43.35
2022-10-31T18:38:08.184Z,72.38
2022-10-31T18:40:36.126Z,77.07
2022-10-31T18:43:03.947Z,45.00
2022-10-31T18:45:41.711Z,64.93
2022-10-31T18:50:41.600Z,66.15
2022-10-31T18:53:08.844Z,54.15
2022-10-31T18:55:41.514Z,49.00
2022-10-31T18:58:11.232Z,53.72
2022-10-31T19:00:38.633Z,57.17
2022-10-31T19:03:06.659Z,64.90
2022-10-31T19:05:33.832Z,78.63
2022-10-31T19:08:00.973Z,71.65
2022-10-31T19:10:28.221Z,62.47
2022-10-31T19:12:55.467Z,58.15
2022-10-31T19:15:22.770Z,55.63
2022-10-31T19:17:49.949Z,55.42
2022-10-31T19:20:17.176Z,58.72
2022-10-31T19:22:44.464Z,57.85
2022-10-31T19:25:11.724Z,64.40
2022-10-31T19:27:39.163Z,54.20
2022-10-31T19:30:07.381Z,64.15
2022-10-31T19:32:34.720Z,73.65
2022-10-31T19:35:02.717Z,71.85
2022-10-31T19:37:29.891Z,70.05
2022-10-31T19:39:57.000Z,76.38
2022-10-31T19:42:24.353Z,85.53
2022-10-31T19:44:51.704Z,70.00
2022-10-31T19:47:18.865Z,59.67
2022-10-31T19:49:46.005Z,55.53
2022-10-31T19:52:13.057Z,55.15
2022-10-31T19:54:40.127Z,55.05
2022-10-31T19:57:07.304Z,46.60
2022-10-31T19:59:39.105Z,48.03
2022-10-31T20:02:06.676Z,42.83
2022-10-31T20:04:33.778Z,50.42
2022-10-31T20:07:00.912Z,52.15
2022-10-31T20:09:27.979Z,42.88
2022-10-31T20:11:55.135Z,40.15
2022-10-31T20:14:22.212Z,48.60
2022-10-31T20:16:49.459Z,56.42
2022-10-31T20:19:16.587Z,53.15
2022-10-31T20:21:43.999Z,56.75
2022-10-31T20:24:11.628Z,54.30
2022-10-31T20:26:40.726Z,55.92
2022-10-31T20:29:08.494Z,55.03
2022-10-31T20:31:36.768Z,43.25
2022-10-31T20:34:04.361Z,69.75
2022-10-31T20:36:31.944Z,75.35
2022-10-31T20:39:00.318Z,73.15
2022-10-31T20:41:27.533Z,68.72
2022-10-31T20:43:54.688Z,77.18
2022-10-31T20:46:23.448Z,69.80
2022-10-31T20:48:50.976Z,77.18
2022-10-31T20:51:19.147Z,57.78
2022-10-31T20:53:46.299Z,71.78
2022-10-31T20:56:14.656Z,66.53
2022-10-31T20:58:42.604Z,75.55
2022-10-31T21:01:13.968Z,57.47
2022-10-31T21:03:41.251Z,68.47
2022-10-31T21:06:08.539Z,71.97
2022-10-31T21:08:36.275Z,57.90
2022-10-31T21:11:06.865Z,75.45
2022-10-31T21:13:40.203Z,69.05
2022-10-31T21:16:09.294Z,60.38
2022-10-31T21:18:37.056Z,62.88
2022-10-31T21:21:10.277Z,59.05
2022-10-31T21:23:37.630Z,57.15
2022-10-31T21:26:05.754Z,58.25
2022-10-31T21:28:32.923Z,66.25
2022-10-31T21:31:00.184Z,62.22
2022-10-31T21:33:27.344Z,63.00
2022-10-31T21:35:57.110Z,62.42
2022-10-31T21:38:25.571Z,54.03
2022-10-31T21:40:58.924Z,57.40
2022-10-31T21:43:28.935Z,55.72
2022-10-31T21:45:56.110Z,63.72
2022-10-31T21:48:23.243Z,56.38
2022-10-31T21:50:50.590Z,48.08
2022-10-31T21:53:36.880Z,70.07
2022-10-31T21:56:04.361Z,47.13
2022-10-31T21:58:34.768Z,46.92
2022-10-31T22:01:04.895Z,52.17
2022-10-31T22:03:35.747Z,43.60
2022-10-31T22:06:03.629Z,49.75
2022-10-31T22:08:31.008Z,41.42
2022-10-31T22:10:58.395Z,61.38
2022-10-31T22:13:25.460Z,47.53
2022-10-31T22:15:52.591Z,61.08
2022-10-31T22:18:19.653Z,58.80
2022-10-31T22:20:46.746Z,38.25
2022-10-31T22:23:13.839Z,53.85
2022-10-31T22:25:40.910Z,47.63
2022-10-31T22:28:08.099Z,44.53
2022-10-31T22:30:38.615Z,48.88
2022-10-31T22:33:05.810Z,50.00
2022-10-31T22:35:34.969Z,52.38
2022-10-31T22:38:02.192Z,54.78
2022-10-31T22:40:29.258Z,61.40
2022-10-31T22:42:56.304Z,55.03
2022-10-31T22:45:23.421Z,57.22
2022-10-31T22:47:50.532Z,68.53
2022-10-31T22:50:17.623Z,50.38
2022-10-31T22:52:44.810Z,53.03
2022-10-31T22:55:11.928Z,54.22
2022-10-31T22:57:39.046Z,54.17
2022-10-31T23:00:06.429Z,63.55
2022-10-31T23:02:33.697Z,56.53
2022-10-31T23:05:00.836Z,61.17
2022-10-31T23:07:32.090Z,62.45
2022-10-31T23:10:00.211Z,54.83
2022-10-31T23:12:48.582Z,61.88
2022-10-31T23:15:15.712Z,63.35
2022-10-31T23:17:42.803Z,52.45
2022-10-31T23:20:10.046Z,58.92
2022-10-31T23:22:37.117Z,56.70
2022-10-31T23:25:04.421Z,54.47
2022-10-31T23:27:31.507Z,51.95
2022-10-31T23:29:59.711Z,65.25
2022-10-31T23:32:28.468Z,57.33
2022-10-31T23:34:59.842Z,65.45
2022-10-31T23:37:31.214Z,59.40
2022-10-31T23:39:58.567Z,67.57
2022-10-31T23:42:25.934Z,69.40
2022-10-31T23:44:53.154Z,61.25
2022-10-31T23:47:20.289Z,62.30
2022-10-31T23:49:47.688Z,61.20
2022-10-31T23:52:15.143Z,60.88
2022-10-31T23:54:42.598Z,57.95
2022-10-31T23:57:11.147Z,57.65
2022-10-31T23:59:38.237Z,50.15
